Time;durP1;ratioP1;P1;durP2;ratioP2;P2;SDS_P1;SDS_P2;PMS_P1;PMS_P2;Temp;Humidity;BMP_temperature;BMP_pressure;BME280_temperature;BME280_humidity;BME280_pressure;Samples;Min_cycle;Max_cycle;Signal;HPM_P1;HPM_P2
2021/12/29 00:00:16;;;;;;;;;13.00;7.25;;;;;11.94;64.19;100317.91;5042811;28;45324;-50
2021/12/29 00:02:42;;;;;;;;;10.25;4.75;;;;;11.94;64.37;100316.13;5042463;28;45257;-49
2021/12/29 00:05:08;;;;;;;;;11.25;6.50;;;;;11.94;64.16;100325.81;5042927;28;45281;-46
2021/12/29 00:07:34;;;;;;;;;13.50;6.50;;;;;11.88;64.49;100326.81;5042662;28;45336;-50
2021/12/29 00:10:01;;;;;;;;;8.00;7.75;;;;;11.95;64.23;100338.94;5042580;28;45269;-51
2021/12/29 00:12:26;;;;;;;;;8.50;4.00;;;;;11.95;64.57;100336.31;5042669;28;45265;-50
2021/12/29 00:14:54;;;;;;;;;12.75;8.00;;;;;11.95;64.34;100348.56;5042902;28;45320;-47
2021/12/29 00:17:20;;;;;;;;;10.00;4.75;;;;;11.94;64.28;100358.25;5024495;28;45421;-48
2021/12/29 00:19:45;;;;;;;;;12.75;6.75;;;;;11.94;64.58;100357.41;5042446;28;45341;-50
2021/12/29 00:22:11;;;;;;;;;7.00;4.75;;;;;11.92;64.75;100364.47;5042461;28;45179;-50
2021/12/29 00:24:36;;;;;;;;;10.75;7.00;;;;;11.88;64.60;100347.88;5042747;28;45313;-49
2021/12/29 00:27:04;;;;;;;;;11.50;7.00;;;;;11.89;65.00;100354.03;5042542;28;45309;-50
2021/12/29 00:29:30;;;;;;;;;6.75;5.75;;;;;11.90;65.13;100375.06;5042230;28;46257;-49
2021/12/29 00:31:55;;;;;;;;;10.00;6.50;;;;;11.92;65.02;100394.28;5056907;28;45287;-48
2021/12/29 00:34:21;;;;;;;;;6.00;3.75;;;;;11.91;65.13;100408.38;5062745;28;45342;-51
2021/12/29 00:36:46;;;;;;;;;11.00;7.50;;;;;11.91;65.21;100407.50;5060867;28;45545;-47
2021/12/29 00:39:11;;;;;;;;;9.00;6.50;;;;;11.84;65.47;100401.53;5024316;28;48393;-49
2021/12/29 00:41:37;;;;;;;;;11.00;6.50;;;;;11.84;65.54;100431.34;5042173;28;45337;-49
2021/12/29 00:44:02;;;;;;;;;12.00;10.25;;;;;11.87;65.67;100404.06;5024604;28;45353;-52
2021/12/29 00:46:28;;;;;;;;;13.00;6.25;;;;;11.85;65.88;100417.28;5040765;28;45466;-48
2021/12/29 00:48:53;;;;;;;;;13.25;8.75;;;;;11.84;65.60;100406.78;5042255;28;45237;-50
2021/12/29 00:51:19;;;;;;;;;8.00;4.75;;;;;11.80;66.00;100410.41;5042013;28;45213;-49
2021/12/29 00:53:44;;;;;;;;;15.50;8.50;;;;;11.80;65.89;100410.41;5042244;28;45230;-47
2021/12/29 00:56:10;;;;;;;;;13.75;8.00;;;;;11.80;66.06;100419.16;5042006;28;45616;-50
2021/12/29 00:58:35;;;;;;;;;5.75;5.25;;;;;11.84;65.75;100427.88;5042207;28;46437;-48
2021/12/29 01:01:02;;;;;;;;;9.25;7.00;;;;;11.82;66.05;100419.13;5041718;28;45266;-47
2021/12/29 01:03:28;;;;;;;;;7.50;5.00;;;;;11.80;66.19;100419.16;5042010;28;45247;-46
2021/12/29 01:05:53;;;;;;;;;11.25;6.50;;;;;11.78;66.15;100417.47;5023997;28;45940;-49
2021/12/29 01:08:18;;;;;;;;;10.50;9.00;;;;;11.78;66.16;100402.53;5041837;28;45336;-46
2021/12/29 01:10:44;;;;;;;;;12.00;7.00;;;;;11.79;66.35;100414.81;5041793;28;45325;-47
2021/12/29 01:13:11;;;;;;;;;10.25;6.50;;;;;11.81;66.16;100420.03;5041986;28;45727;-49
2021/12/29 01:16:15;;;;;;;;;9.00;7.25;;;;;11.79;66.25;100425.34;5041806;28;45414;-48
2021/12/29 01:18:43;;;;;;;;;8.75;6.75;;;;;11.83;65.99;100426.13;5041497;28;46360;-48
2021/12/29 01:21:09;;;;;;;;;10.25;6.25;;;;;11.84;66.08;100433.13;5041488;28;45229;-46
2021/12/29 01:23:35;;;;;;;;;10.50;8.50;;;;;11.84;66.40;100433.13;5037107;28;45315;-45
2021/12/29 01:26:01;;;;;;;;;7.75;5.00;;;;;11.86;66.10;100437.44;5041588;28;45326;-51
2021/12/29 01:28:26;;;;;;;;;8.50;5.25;;;;;11.84;66.32;100443.66;5041611;28;46152;-45
2021/12/29 01:30:52;;;;;;;;;8.75;7.75;;;;;11.86;66.25;100441.84;5047270;28;45170;-47
2021/12/29 01:33:17;;;;;;;;;10.75;6.75;;;;;11.89;66.12;100443.56;5061789;28;45203;-48
2021/12/29 01:35:43;;;;;;;;;7.25;3.50;;;;;11.92;66.26;100435.56;5061617;28;45603;-46
2021/12/29 01:38:09;;;;;;;;;7.50;4.25;;;;;11.92;66.32;100430.31;5049109;28;46276;-47
2021/12/29 01:40:36;;;;;;;;;14.75;10.00;;;;;11.96;66.02;100434.63;5041107;28;45378;-46
2021/12/29 01:43:06;;;;;;;;;8.75;6.00;;;;;11.97;66.23;100428.44;5041448;28;45308;-48
2021/12/29 01:45:32;;;;;;;;;8.25;4.50;;;;;11.98;66.46;100431.03;5041286;28;45595;-51
2021/12/29 01:47:59;;;;;;;;;9.50;6.50;;;;;11.99;66.01;100430.13;5040884;28;46901;-49
2021/12/29 01:50:25;;;;;;;;;9.75;6.00;;;;;12.00;66.14;100416.06;5041368;28;45357;-47
2021/12/29 01:52:55;;;;;;;;;9.00;5.75;;;;;12.00;66.00;100431.88;5023505;28;45410;-48
2021/12/29 01:55:25;;;;;;;;;10.50;6.25;;;;;12.03;66.12;100433.56;5041158;28;45373;-50
2021/12/29 01:57:51;;;;;;;;;9.00;7.00;;;;;12.05;66.01;100436.16;5040521;28;45924;-49
2021/12/29 02:00:22;;;;;;;;;9.25;5.50;;;;;12.06;66.09;100443.16;5041285;28;45379;-50
2021/12/29 02:02:48;;;;;;;;;12.25;6.75;;;;;12.07;65.90;100437.00;5040923;28;45423;-51
2021/12/29 02:05:14;;;;;;;;;12.50;7.00;;;;;12.05;65.75;100434.41;5040838;28;45451;-50
2021/12/29 02:07:41;;;;;;;;;9.00;5.00;;;;;12.06;66.03;100445.78;5040832;28;45397;-48
2021/12/29 02:10:07;;;;;;;;;8.75;7.25;;;;;12.08;66.34;100457.16;5040703;28;45313;-49
2021/12/29 02:12:33;;;;;;;;;7.50;5.25;;;;;12.09;66.19;100464.13;5040798;28;45328;-46
2021/12/29 02:14:58;;;;;;;;;10.50;6.50;;;;;12.01;66.31;100462.56;5022941;28;45187;-49
2021/12/29 02:17:23;;;;;;;;;6.00;4.00;;;;;12.03;66.24;100452.84;5040294;28;47145;-50
2021/12/29 02:19:49;;;;;;;;;8.00;7.75;;;;;12.03;66.40;100450.22;5041121;28;45245;-48
2021/12/29 02:22:59;;;;;;;;;10.25;6.75;;;;;12.03;66.12;100452.00;5040849;28;45250;-48
2021/12/29 02:27:52;;;;;;;;;7.75;5.25;;;;;12.08;66.38;100446.63;5047275;28;46000;-49
2021/12/29 02:30:20;;;;;;;;;5.00;5.00;;;;;12.08;66.06;100444.84;5053884;28;45348;-52
2021/12/29 02:32:46;;;;;;;;;5.25;5.25;;;;;12.07;66.36;100439.63;5060562;28;45296;-50
2021/12/29 02:35:15;;;;;;;;;8.50;4.25;;;;;12.10;66.17;100445.69;5060493;28;45454;-51
2021/12/29 02:37:40;;;;;;;;;9.50;5.75;;;;;12.11;66.20;100455.31;5051522;28;46210;-50
2021/12/29 02:40:07;;;;;;;;;10.50;6.25;;;;;12.11;66.39;100443.91;5040102;28;45437;-50
2021/12/29 02:42:39;;;;;;;;;11.25;3.75;;;;;12.15;66.34;100450.81;5040588;28;45460;-50
2021/12/29 02:45:06;;;;;;;;;13.25;5.25;;;;;12.16;66.18;100442.91;5040287;28;45346;-50
2021/12/29 02:47:32;;;;;;;;;7.25;5.25;;;;;12.16;66.04;100449.91;5040044;28;46272;-51
2021/12/29 02:49:58;;;;;;;;;9.75;6.75;;;;;12.17;66.25;100446.38;5040084;28;45338;-49
2021/12/29 02:52:24;;;;;;;;;10.00;6.25;;;;;12.18;66.03;100448.97;5040503;28;45297;-51
2021/12/29 02:54:50;;;;;;;;;8.75;6.00;;;;;12.19;66.12;100436.69;5039960;28;45463;-50
2021/12/29 02:57:16;;;;;;;;;9.75;6.25;;;;;12.19;66.01;100448.06;5040206;28;46305;-51
2021/12/29 02:59:41;;;;;;;;;7.00;5.25;;;;;12.18;66.25;100443.69;5039844;28;45178;-52
2021/12/29 03:02:07;;;;;;;;;6.25;5.25;;;;;12.16;66.21;100439.38;5040209;28;45288;-50
2021/12/29 03:04:32;;;;;;;;;9.25;4.00;;;;;12.18;66.32;100454.25;5039987;28;45186;-51
2021/12/29 03:06:57;;;;;;;;;8.50;7.00;;;;;12.17;66.49;100444.59;5040105;28;45249;-51
2021/12/29 03:09:23;;;;;;;;;8.75;5.50;;;;;12.19;66.45;100444.59;5039229;28;45557;-51
2021/12/29 03:11:48;;;;;;;;;10.75;5.00;;;;;12.17;66.20;100441.13;5040092;28;45368;-52
2021/12/29 03:14:15;;;;;;;;;8.00;4.75;;;;;12.18;66.13;100435.81;5039988;28;45316;-50
2021/12/29 03:16:40;;;;;;;;;11.50;7.75;;;;;12.19;66.30;100440.16;5039723;28;46052;-52
2021/12/29 03:19:07;;;;;;;;;8.75;6.50;;;;;12.21;66.21;100440.13;5039774;28;45350;-47
2021/12/29 03:21:34;;;;;;;;;10.75;8.00;;;;;12.19;66.20;100436.69;5039989;28;45328;-48
2021/12/29 03:23:59;;;;;;;;;10.50;4.75;;;;;12.21;66.45;100439.28;5039665;28;45233;-50
2021/12/29 03:26:25;;;;;;;;;5.50;4.50;;;;;12.21;66.40;100436.63;5021992;28;45973;-50
2021/12/29 03:28:52;;;;;;;;;7.25;4.75;;;;;12.20;66.46;100430.50;5039754;28;45403;-51
2021/12/29 03:31:21;;;;;;;;;6.75;5.25;;;;;12.19;66.54;100432.25;5049254;28;45502;-47
2021/12/29 03:33:46;;;;;;;;;10.25;6.25;;;;;12.19;66.66;100436.69;5059634;28;45336;-50
2021/12/29 03:36:12;;;;;;;;;8.25;4.75;;;;;12.20;66.74;100446.31;5041511;28;46005;-50
2021/12/29 03:38:39;;;;;;;;;11.50;6.50;;;;;12.18;66.73;100448.13;5042889;28;45332;-50
2021/12/29 03:41:07;;;;;;;;;5.50;4.75;;;;;12.16;66.70;100444.66;5039581;28;45305;-47
2021/12/29 03:43:34;;;;;;;;;5.25;3.75;;;;;12.13;66.80;100444.75;5039565;28;45237;-51
2021/12/29 03:46:02;;;;;;;;;10.75;6.50;;;;;12.13;66.81;100439.47;5039291;28;45444;-47
2021/12/29 03:48:29;;;;;;;;;7.50;6.50;;;;;12.12;66.82;100435.94;5039502;28;45332;-52
2021/12/29 03:50:56;;;;;;;;;10.00;3.25;;;;;12.11;66.60;100442.16;5039622;28;45222;-49
2021/12/29 03:53:22;;;;;;;;;7.00;4.75;;;;;12.10;66.85;100434.25;5039417;28;45237;-51
2021/12/29 03:55:50;;;;;;;;;6.50;4.00;;;;;12.10;67.06;100429.00;5039241;28;46320;-51
2021/12/29 03:58:19;;;;;;;;;6.75;4.50;;;;;12.11;66.84;100428.09;5039217;28;45253;-48
2021/12/29 04:00:45;;;;;;;;;5.00;4.00;;;;;12.09;66.74;100425.50;5021244;28;45408;-49
2021/12/29 04:03:11;;;;;;;;;6.50;5.25;;;;;12.08;67.04;100428.19;5039211;28;45496;-49
2021/12/29 04:05:37;;;;;;;;;8.75;6.25;;;;;12.05;67.20;100415.09;5039006;28;45271;-55
2021/12/29 04:08:03;;;;;;;;;9.25;4.50;;;;;12.05;67.15;100417.72;5039151;28;45240;-51
2021/12/29 04:10:30;;;;;;;;;6.00;4.00;;;;;12.05;67.12;100415.97;5021293;28;45267;-47
2021/12/29 04:12:56;;;;;;;;;6.00;4.00;;;;;12.07;66.82;100413.28;5021150;28;45405;-50
2021/12/29 04:15:24;;;;;;;;;4.25;3.00;;;;;12.05;67.27;100415.97;5039086;28;46148;-50
2021/12/29 04:17:51;;;;;;;;;8.75;3.50;;;;;12.05;66.97;100425.63;5038691;28;45233;-52
2021/12/29 04:23:07;;;;;;;;;8.00;4.00;;;;;12.01;67.29;100427.47;5042515;28;45503;-52
2021/12/29 04:25:38;;;;;;;;;8.50;5.75;;;;;12.02;67.24;100430.09;5042348;28;46132;-50
2021/12/29 04:28:08;;;;;;;;;4.75;4.75;;;;;12.02;67.11;100427.44;5042487;28;45393;-50
2021/12/29 04:30:34;;;;;;;;;8.25;4.75;;;;;12.03;67.32;100437.06;5045621;28;45508;-49
2021/12/29 04:33:00;;;;;;;;;6.25;3.00;;;;;12.03;67.41;100434.41;5062652;28;45238;-50
2021/12/29 04:35:25;;;;;;;;;5.00;4.00;;;;;12.03;67.26;100430.94;5062721;28;45751;-50
2021/12/29 04:37:51;;;;;;;;;4.25;4.25;;;;;12.00;67.35;100433.66;5051876;28;45296;-50
2021/12/29 04:40:17;;;;;;;;;4.50;3.25;;;;;11.99;67.65;100442.44;5042214;28;45298;-48
2021/12/29 04:42:43;;;;;;;;;6.00;4.50;;;;;11.95;67.66;100432.84;5042477;28;45241;-52
2021/12/29 04:45:09;;;;;;;;;6.00;3.75;;;;;11.95;67.65;100425.81;5042107;28;46421;-51
2021/12/29 04:47:39;;;;;;;;;7.00;5.25;;;;;11.90;68.06;100422.44;5042120;28;45383;-49
2021/12/29 04:50:08;;;;;;;;;5.25;3.75;;;;;11.86;67.95;100426.91;5042177;28;45180;-50
2021/12/29 04:52:33;;;;;;;;;4.50;4.00;;;;;11.90;68.27;100414.53;5042174;28;45480;-47
2021/12/29 04:54:59;;;;;;;;;4.50;3.50;;;;;11.89;68.10;100420.72;5041822;28;46115;-49
2021/12/29 04:57:26;;;;;;;;;5.25;4.25;;;;;11.86;67.86;100412.88;5042271;28;45329;-49
2021/12/29 04:59:51;;;;;;;;;3.00;3.00;;;;;11.84;68.20;100409.44;5042041;28;45281;-49
2021/12/29 05:02:16;;;;;;;;;4.50;4.00;;;;;11.82;68.35;100405.97;5041734;28;45325;-48
2021/12/29 05:04:57;;;;;;;;;4.25;4.00;;;;;11.81;68.49;100406.84;5041827;28;46307;-49
2021/12/29 05:10:07;;;;;;;;;4.50;3.50;;;;;11.81;68.38;100401.59;5041866;28;45505;-48
2021/12/29 05:12:32;;;;;;;;;7.00;2.75;;;;;11.79;68.37;100395.53;5041635;28;45511;-49
2021/12/29 05:14:58;;;;;;;;;4.00;4.00;;;;;11.75;68.59;100396.47;5041884;28;45330;-50
2021/12/29 05:17:23;;;;;;;;;3.75;3.00;;;;;11.77;68.57;100402.56;5023741;28;45507;-50
2021/12/29 05:19:49;;;;;;;;;5.50;3.00;;;;;11.76;68.63;100391.19;5041925;28;45388;-51
2021/12/29 05:22:14;;;;;;;;;2.25;2.00;;;;;11.74;68.86;100385.09;5041662;28;45316;-48
2021/12/29 05:24:39;;;;;;;;;3.00;3.00;;;;;11.74;68.83;100389.50;5041789;28;46172;-50
2021/12/29 05:27:05;;;;;;;;;5.00;3.00;;;;;11.65;68.97;100378.28;5041475;28;45342;-50
2021/12/29 05:29:30;;;;;;;;;3.00;3.00;;;;;11.65;69.08;100380.91;5041832;28;45430;-51
2021/12/29 05:31:56;;;;;;;;;7.00;4.00;;;;;11.68;69.21;100386.13;5055527;28;45325;-47
2021/12/29 05:34:21;;;;;;;;;2.75;2.75;;;;;11.68;68.97;100383.50;5061624;28;46226;-50
2021/12/29 05:36:47;;;;;;;;;3.00;3.00;;;;;11.68;69.24;100377.34;5060019;28;45345;-50
2021/12/29 05:39:12;;;;;;;;;4.00;3.00;;;;;11.69;69.28;100376.44;5041700;28;45427;-49
2021/12/29 05:41:38;;;;;;;;;4.00;4.00;;;;;11.66;69.10;100366.88;5041235;28;45467;-51
2021/12/29 05:44:03;;;;;;;;;2.25;2.25;;;;;11.70;69.08;100370.28;5023633;28;48273;-48
2021/12/29 05:46:29;;;;;;;;;4.00;3.00;;;;;11.69;69.04;100377.31;5040973;28;45242;-47
2021/12/29 05:48:54;;;;;;;;;2.00;2.00;;;;;11.67;69.09;100362.44;5041630;28;45305;-50
2021/12/29 05:51:20;;;;;;;;;6.75;3.00;;;;;11.69;68.95;100376.44;5041216;28;45273;-49
2021/12/29 05:53:45;;;;;;;;;3.50;2.00;;;;;11.71;69.10;100375.50;5023336;28;48060;-49
2021/12/29 05:56:11;;;;;;;;;3.00;3.00;;;;;11.71;69.27;100364.97;5041197;28;45232;-48
2021/12/29 05:58:38;;;;;;;;;2.25;2.00;;;;;11.71;69.21;100364.97;5023439;28;45166;-52
2021/12/29 06:01:04;;;;;;;;;3.00;3.00;;;;;11.70;69.36;100363.25;5023152;28;46353;-48
2021/12/29 06:03:29;;;;;;;;;1.75;1.75;;;;;11.70;69.31;100363.25;5040939;28;46435;-51
2021/12/29 06:05:54;;;;;;;;;1.25;1.25;;;;;11.67;69.35;100352.81;5040989;28;45328;-51
2021/12/29 06:08:20;;;;;;;;;5.00;3.75;;;;;11.68;69.38;100349.28;5041272;28;45320;-49
2021/12/29 06:10:45;;;;;;;;;3.00;2.25;;;;;11.68;69.56;100353.66;5040826;28;45548;-48
2021/12/29 06:13:11;;;;;;;;;2.00;2.00;;;;;11.68;69.54;100357.19;5040942;28;45998;-49
2021/12/29 06:15:36;;;;;;;;;2.50;2.50;;;;;11.72;69.44;100347.41;5040739;28;45374;-49
2021/12/29 06:18:03;;;;;;;;;3.00;3.00;;;;;11.73;69.46;100350.91;5023088;28;45408;-49
2021/12/29 06:20:29;;;;;;;;;2.00;2.00;;;;;11.70;69.54;100343.97;5040807;28;45325;-48
2021/12/29 06:22:54;;;;;;;;;4.25;4.00;;;;;11.71;69.58;100343.91;5022872;28;46214;-50
2021/12/29 06:25:20;;;;;;;;;3.75;3.75;;;;;11.70;69.63;100354.50;5040413;28;45333;-50
2021/12/29 06:27:46;;;;;;;;;4.00;4.00;;;;;11.72;69.58;100357.94;5041013;28;45618;-48
2021/12/29 06:30:13;;;;;;;;;3.00;3.00;;;;;11.73;69.50;100358.81;5040956;28;45246;-49
2021/12/29 06:32:40;;;;;;;;;4.75;3.00;;;;;11.75;69.40;100351.72;5060567;28;46201;-48
2021/12/29 06:35:07;;;;;;;;;4.75;4.00;;;;;11.77;69.72;100363.09;5060610;28;45253;-48
2021/12/29 06:37:33;;;;;;;;;2.50;2.50;;;;;11.74;69.74;100357.91;5053068;28;45465;-50
2021/12/29 06:39:58;;;;;;;;;3.00;3.00;;;;;11.77;69.60;100363.94;5040124;28;45261;-50
2021/12/29 06:42:24;;;;;;;;;1.00;1.00;;;;;11.78;69.80;100362.19;5040358;28;45185;-49
2021/12/29 06:44:49;;;;;;;;;1.50;1.50;;;;;11.78;69.61;100362.19;5039298;28;45300;-47
2021/12/29 06:47:15;;;;;;;;;3.75;3.00;;;;;11.81;69.56;100356.84;5040507;28;45275;-49
2021/12/29 06:49:41;;;;;;;;;1.00;1.00;;;;;11.79;69.69;100356.03;5040202;28;45250;-48
2021/12/29 06:52:08;;;;;;;;;3.25;2.00;;;;;11.82;69.88;100361.22;5022245;28;47313;-47
2021/12/29 06:54:34;;;;;;;;;2.50;2.00;;;;;11.81;69.62;100355.09;5040056;28;45352;-49
2021/12/29 06:57:00;;;;;;;;;2.00;1.00;;;;;11.83;69.80;100360.31;5040259;28;45343;-47
2021/12/29 06:59:26;;;;;;;;;2.00;2.00;;;;;11.85;69.67;100363.78;5040007;28;45280;-46
2021/12/29 07:01:51;;;;;;;;;1.50;1.25;;;;;11.86;69.77;100365.47;5040181;28;46355;-49
2021/12/29 07:04:17;;;;;;;;;1.00;1.00;;;;;11.86;69.95;100354.94;5039895;28;45474;-50
2021/12/29 07:06:43;;;;;;;;;4.00;3.00;;;;;11.86;69.56;100362.84;5040334;28;45321;-47
2021/12/29 07:09:09;;;;;;;;;2.25;2.25;;;;;11.84;69.89;100360.25;5039830;28;45178;-46
2021/12/29 07:11:36;;;;;;;;;2.25;1.00;;;;;11.84;70.06;100359.41;5021959;28;47452;-49
2021/12/29 07:14:04;;;;;;;;;2.00;2.00;;;;;11.86;70.11;100354.94;5039970;28;45317;-50
2021/12/29 07:16:30;;;;;;;;;3.75;3.00;;;;;11.87;70.05;100360.19;5039866;28;45294;-50
2021/12/29 07:18:56;;;;;;;;;2.75;2.75;;;;;11.89;70.21;100359.31;5039785;28;45409;-47
2021/12/29 07:21:21;;;;;;;;;3.25;2.75;;;;;11.88;70.13;100355.78;5021793;28;47332;-49
2021/12/29 07:23:47;;;;;;;;;3.00;3.00;;;;;11.91;70.26;100362.75;5039782;28;45320;-48
2021/12/29 07:26:12;;;;;;;;;4.00;3.25;;;;;11.90;70.27;100351.34;5040163;28;45667;-49
2021/12/29 07:28:38;;;;;;;;;1.75;1.75;;;;;11.92;70.36;100352.16;5035489;28;45293;-51
2021/12/29 07:31:04;;;;;;;;;2.25;2.25;;;;;11.93;70.08;100361.78;5047178;28;46314;-46
2021/12/29 07:33:29;;;;;;;;;3.75;3.75;;;;;11.95;70.22;100361.75;5059765;28;45258;-50
2021/12/29 07:35:55;;;;;;;;;3.00;3.00;;;;;11.94;70.31;100360.03;5060064;28;45195;-47
2021/12/29 07:38:20;;;;;;;;;3.50;3.50;;;;;11.96;70.09;100358.25;5045435;28;45514;-47
2021/12/29 07:40:45;;;;;;;;;3.00;2.25;;;;;11.98;70.34;100364.34;5039554;28;46277;-51
2021/12/29 07:43:12;;;;;;;;;2.75;2.75;;;;;11.96;70.18;100356.50;5021704;28;45261;-49
2021/12/29 07:45:38;;;;;;;;;2.00;2.00;;;;;11.99;70.31;100363.44;5039741;28;45236;-50
2021/12/29 07:48:05;;;;;;;;;3.25;3.00;;;;;12.00;70.58;100360.78;5039418;28;45387;-49
2021/12/29 07:50:30;;;;;;;;;2.00;2.00;;;;;12.01;70.52;100373.03;5021505;28;46973;-53
2021/12/29 07:52:55;;;;;;;;;2.00;2.00;;;;;12.04;70.14;100364.19;5039393;28;45313;-50
2021/12/29 07:55:21;;;;;;;;;2.00;2.00;;;;;12.06;70.51;100379.94;5041355;28;45293;-49
2021/12/29 07:57:47;;;;;;;;;1.25;1.25;;;;;12.07;70.48;100385.16;5042948;28;45570;-48
2021/12/29 08:00:14;;;;;;;;;1.00;1.00;;;;;12.09;70.35;100379.84;5043080;28;45329;-49
2021/12/29 08:02:43;;;;;;;;;4.00;4.00;;;;;12.09;70.59;100377.22;5042397;28;45330;-51
2021/12/29 08:05:10;;;;;;;;;3.00;1.75;;;;;12.11;70.40;100372.78;5042787;28;45394;-52
2021/12/29 08:07:36;;;;;;;;;4.75;3.00;;;;;12.12;70.58;100371.88;5042567;28;45309;-47
2021/12/29 08:10:03;;;;;;;;;3.00;3.00;;;;;12.11;70.58;100372.78;5050663;28;46934;-50
2021/12/29 08:12:28;;;;;;;;;2.00;2.00;;;;;12.13;70.63;100377.09;5047956;28;45244;-51
2021/12/29 08:14:54;;;;;;;;;3.75;3.00;;;;;12.13;70.85;100387.66;5042931;28;45278;-52
2021/12/29 08:17:19;;;;;;;;;3.00;3.00;;;;;12.15;70.73;100388.47;5042354;28;45233;-51
2021/12/29 08:19:45;;;;;;;;;3.00;3.00;;;;;12.18;70.72;100395.44;5042748;28;46301;-51
2021/12/29 08:22:11;;;;;;;;;3.50;3.00;;;;;12.19;70.90;100389.25;5042603;28;45224;-50
2021/12/29 08:24:36;;;;;;;;;3.50;3.50;;;;;12.21;70.88;100392.69;5043065;28;45282;-51
2021/12/29 08:27:02;;;;;;;;;5.50;5.50;;;;;12.23;70.92;100397.97;5042326;28;45542;-51
2021/12/29 08:29:28;;;;;;;;;2.75;2.75;;;;;12.26;70.90;100403.13;5042408;28;46247;-59
2021/12/29 08:31:55;;;;;;;;;3.25;3.25;;;;;12.27;71.08;100402.22;5056859;28;45217;-51
2021/12/29 08:34:20;;;;;;;;;4.50;4.00;;;;;12.30;70.66;100410.91;5062761;28;45347;-58
2021/12/29 08:36:46;;;;;;;;;2.75;2.00;;;;;12.30;70.79;100416.19;5060937;28;45447;-54
2021/12/29 08:39:11;;;;;;;;;4.75;4.75;;;;;12.31;70.73;100412.66;5042376;28;46013;-60
2021/12/29 08:41:36;;;;;;;;;21.00;19.50;;;;;12.31;70.94;100419.69;5042052;28;45313;-49
2021/12/29 08:44:02;;;;;;;;;8.25;8.25;;;;;12.34;70.99;100420.47;5042709;28;45388;-51
2021/12/29 08:46:28;;;;;;;;;5.25;5.25;;;;;12.35;71.29;100418.69;5041845;28;45531;-49
2021/12/29 08:48:54;;;;;;;;;6.00;6.00;;;;;12.37;70.83;100408.97;5042379;28;45194;-47
2021/12/29 08:51:20;;;;;;;;;6.75;6.75;;;;;12.38;71.34;100413.34;5024074;28;45408;-48
2021/12/29 08:53:47;;;;;;;;;7.00;7.00;;;;;12.41;71.38;100399.22;5042338;28;45391;-48
2021/12/29 08:56:14;;;;;;;;;9.00;8.50;;;;;12.43;71.36;100398.28;5042034;28;45507;-49
2021/12/29 08:58:40;;;;;;;;;6.00;5.25;;;;;12.44;71.32;100396.50;5023913;28;46234;-50
2021/12/29 09:01:06;;;;;;;;;10.00;7.50;;;;;12.46;71.35;100410.50;5007322;28;45394;-50
2021/12/29 09:03:31;;;;;;;;;7.25;6.50;;;;;12.45;71.52;100406.13;5042252;28;45305;-51
2021/12/29 09:05:57;;;;;;;;;8.25;6.75;;;;;12.46;71.68;100399.97;5023148;28;45317;-50
2021/12/29 09:08:22;;;;;;;;;3.00;0.75;;;;;12.48;71.69;100403.44;5041622;28;46100;-52
2021/12/29 09:10:48;;;;;;;;;9.00;7.75;;;;;12.50;71.66;100401.59;5048092;28;45297;-52
2021/12/29 09:13:14;;;;;;;;;8.75;7.25;;;;;12.51;71.65;100404.22;5042065;28;45346;-50
2021/12/29 09:15:40;;;;;;;;;7.50;6.00;;;;;12.52;71.87;100397.16;5041603;28;45428;-50
2021/12/29 09:18:05;;;;;;;;;7.00;6.00;;;;;12.51;71.84;100390.16;5036254;28;47327;-47
2021/12/29 09:20:33;;;;;;;;;7.25;6.25;;;;;12.54;71.78;100395.34;5047092;28;45264;-50
2021/12/29 09:23:03;;;;;;;;;5.00;5.00;;;;;12.54;72.08;100391.84;5041948;28;45462;-49
2021/12/29 09:25:29;;;;;;;;;7.00;5.50;;;;;12.56;71.92;100390.03;5048751;28;45464;-49
2021/12/29 09:27:55;;;;;;;;;8.25;5.50;;;;;12.59;71.98;100390.81;5041701;28;45286;-47
2021/12/29 09:30:24;;;;;;;;;6.25;5.50;;;;;12.61;72.01;100394.25;5042893;28;45440;-51
2021/12/29 09:32:50;;;;;;;;;6.00;5.25;;;;;12.64;72.03;100398.56;5062004;28;45359;-52
2021/12/29 09:35:16;;;;;;;;;4.25;4.25;;;;;12.65;71.80;100395.91;5061613;28;45343;-48
2021/12/29 09:37:42;;;;;;;;;6.75;6.25;;;;;12.65;72.10;100405.56;5052338;28;45983;-48
2021/12/29 09:40:09;;;;;;;;;5.25;5.25;;;;;12.67;72.19;100401.13;5041190;28;45459;-52
2021/12/29 09:42:35;;;;;;;;;7.75;7.75;;;;;12.70;72.08;100402.81;5023634;28;45229;-50
2021/12/29 09:45:01;;;;;;;;;11.50;9.25;;;;;12.71;72.10;100400.13;5023329;28;45279;-51
2021/12/29 09:47:28;;;;;;;;;10.00;10.00;;;;;12.74;72.58;100396.53;5041133;28;45339;-50
2021/12/29 09:49:54;;;;;;;;;31.75;30.00;;;;;12.76;72.34;100408.78;5041104;28;45303;-48
2021/12/29 09:52:20;;;;;;;;;8.75;8.00;;;;;12.80;72.43;100404.28;5041550;28;45309;-49
2021/12/29 09:54:45;;;;;;;;;12.75;11.75;;;;;12.81;72.56;100396.31;5040987;28;45265;-51
2021/12/29 09:57:11;;;;;;;;;8.50;7.00;;;;;12.82;72.76;100397.19;5041033;28;45998;-52
2021/12/29 09:59:36;;;;;;;;;10.00;10.00;;;;;12.84;72.75;100396.25;5040796;28;45329;-51
2021/12/29 10:02:02;;;;;;;;;10.00;9.00;;;;;12.87;72.45;100389.13;5023033;28;45380;-52
2021/12/29 10:04:28;;;;;;;;;12.75;11.25;;;;;12.90;72.42;100397.81;5040748;28;45372;-51
2021/12/29 10:06:53;;;;;;;;;12.25;10.50;;;;;12.91;72.51;100398.72;5036315;28;46963;-52
2021/12/29 10:09:19;;;;;;;;;14.00;11.75;;;;;12.93;72.98;100392.47;5045751;28;45463;-51
2021/12/29 10:11:47;;;;;;;;;13.25;10.75;;;;;12.92;72.84;100393.38;5041050;28;45462;-48
2021/12/29 10:14:15;;;;;;;;;14.75;11.00;;;;;12.96;72.97;100392.38;5040685;28;45246;-50
2021/12/29 10:16:45;;;;;;;;;11.00;9.00;;;;;12.99;72.86;100389.66;5040516;28;45352;-52
2021/12/29 10:19:13;;;;;;;;;11.25;9.75;;;;;13.01;73.05;100392.25;5040434;28;45355;-50
2021/12/29 10:21:45;;;;;;;;;9.75;9.75;;;;;13.04;73.25;100388.66;5041142;28;45399;-52
2021/12/29 10:24:12;;;;;;;;;9.50;9.50;;;;;13.08;73.05;100400.81;5040131;28;45545;-52
2021/12/29 10:26:40;;;;;;;;;17.25;15.00;;;;;13.11;73.49;100396.31;5042708;28;48004;-52
2021/12/29 10:29:08;;;;;;;;;10.25;10.25;;;;;13.14;73.11;100408.56;5042693;28;45383;-53
2021/12/29 10:31:40;;;;;;;;;10.75;10.00;;;;;13.16;73.10;100401.47;5052308;28;45175;-49
2021/12/29 10:34:12;;;;;;;;;12.75;10.25;;;;;13.20;73.68;100407.53;5060490;28;45335;-48
2021/12/29 10:36:54;;;;;;;;;7.25;6.00;;;;;13.20;73.77;100408.38;5059991;28;46258;-52
2021/12/29 10:39:24;;;;;;;;;12.25;12.25;;;;;13.24;74.16;100409.16;5040410;28;45187;-51
2021/12/29 10:41:58;;;;;;;;;9.00;9.00;;;;;13.25;73.84;100410.88;5040404;28;45358;-52
2021/12/29 10:44:59;;;;;;;;;11.25;8.25;;;;;13.29;73.89;100404.59;5022548;28;45558;-50
2021/12/29 10:47:31;;;;;;;;;11.00;10.25;;;;;13.33;73.81;100412.38;5035574;28;47331;-52
2021/12/29 10:49:56;;;;;;;;;11.00;9.00;;;;;13.37;73.59;100414.91;5039998;28;45328;-51
2021/12/29 10:52:35;;;;;;;;;14.75;13.50;;;;;13.40;74.14;100415.72;5040490;28;45358;-52
2021/12/29 10:55:04;;;;;;;;;11.75;11.75;;;;;13.43;74.10;100422.66;5055328;28;45544;-49
2021/12/29 10:57:30;;;;;;;;;13.25;10.00;;;;;13.43;73.92;100414.75;5048409;28;45449;-48
2021/12/29 10:59:57;;;;;;;;;9.50;8.50;;;;;13.50;74.21;100426.84;5039942;28;45443;-51
2021/12/29 11:02:35;;;;;;;;;12.75;12.00;;;;;13.53;73.97;100429.38;5040154;28;45371;-50
2021/12/29 11:05:07;;;;;;;;;13.25;13.00;;;;;13.57;74.15;100432.78;5039870;28;45468;-49
2021/12/29 11:07:35;;;;;;;;;13.00;12.00;;;;;13.60;74.55;100435.34;5040111;28;45277;-50
2021/12/29 11:10:12;;;;;;;;;11.25;10.00;;;;;13.62;74.68;100442.31;5039892;28;45183;-50
2021/12/29 11:12:44;;;;;;;;;11.00;10.50;;;;;13.62;74.69;100438.78;5039890;28;45257;-51
2021/12/29 11:15:17;;;;;;;;;9.50;8.00;;;;;13.67;74.96;100436.88;5039766;28;45169;-52
2021/12/29 11:17:43;;;;;;;;;8.50;6.00;;;;;13.71;75.13;100432.34;5039485;28;46112;-52
2021/12/29 11:20:09;;;;;;;;;5.25;5.25;;;;;13.78;74.66;100431.25;5039825;28;45251;-51
2021/12/29 11:22:39;;;;;;;;;6.00;6.00;;;;;13.78;75.21;100436.53;5039920;28;45389;-52
2021/12/29 11:25:05;;;;;;;;;6.00;5.00;;;;;13.85;75.18;100434.53;5040001;28;45299;-51
2021/12/29 11:27:35;;;;;;;;;5.00;4.00;;;;;13.89;74.92;100438.84;5039586;28;45412;-51